sensor_id;sensor_type;location;lat;lon;timestamp;temperature;humidity
20856;DHT22;63058;49.424;8.420;2023-04-25T00:00:00;12.50;92.30
20856;DHT22;63058;49.424;8.420;2023-04-25T00:02:26;12.50;92.20
20856;DHT22;63058;49.424;8.420;2023-04-25T00:04:51;12.50;92.20
20856;DHT22;63058;49.424;8.420;2023-04-25T00:07:17;12.50;92.10
20856;DHT22;63058;49.424;8.420;2023-04-25T00:09:43;12.50;92.40
20856;DHT22;63058;49.424;8.420;2023-04-25T00:12:08;12.50;92.40
20856;DHT22;63058;49.424;8.420;2023-04-25T00:14:34;12.50;92.90
20856;DHT22;63058;49.424;8.420;2023-04-25T00:17:01;12.60;92.60
20856;DHT22;63058;49.424;8.420;2023-04-25T00:19:28;12.60;92.60
20856;DHT22;63058;49.424;8.420;2023-04-25T00:21:55;12.60;92.70
20856;DHT22;63058;49.424;8.420;2023-04-25T00:24:20;12.60;92.90
20856;DHT22;63058;49.424;8.420;2023-04-25T00:26:46;12.60;92.60
20856;DHT22;63058;49.424;8.420;2023-04-25T00:29:12;12.60;92.50
20856;DHT22;63058;49.424;8.420;2023-04-25T00:31:37;12.70;92.60
20856;DHT22;63058;49.424;8.420;2023-04-25T00:34:03;12.70;92.60
20856;DHT22;63058;49.424;8.420;2023-04-25T00:36:28;12.70;92.50
20856;DHT22;63058;49.424;8.420;2023-04-25T00:38:55;12.70;92.80
20856;DHT22;63058;49.424;8.420;2023-04-25T00:41:21;12.70;92.60
20856;DHT22;63058;49.424;8.420;2023-04-25T00:43:48;12.70;92.70
20856;DHT22;63058;49.424;8.420;2023-04-25T00:46:13;12.70;92.80
20856;DHT22;63058;49.424;8.420;2023-04-25T00:48:39;12.80;93.00
20856;DHT22;63058;49.424;8.420;2023-04-25T00:51:05;12.80;93.00
20856;DHT22;63058;49.424;8.420;2023-04-25T00:53:31;12.90;92.90
20856;DHT22;63058;49.424;8.420;2023-04-25T00:55:58;12.90;93.20
20856;DHT22;63058;49.424;8.420;2023-04-25T00:58:24;12.90;92.90
20856;DHT22;63058;49.424;8.420;2023-04-25T01:00:51;12.90;92.90
20856;DHT22;63058;49.424;8.420;2023-04-25T01:03:17;12.90;92.90
20856;DHT22;63058;49.424;8.420;2023-04-25T01:05:46;12.90;92.90
20856;DHT22;63058;49.424;8.420;2023-04-25T01:08:13;13.00;93.00
20856;DHT22;63058;49.424;8.420;2023-04-25T01:10:39;12.90;93.10
20856;DHT22;63058;49.424;8.420;2023-04-25T01:13:04;13.00;93.20
20856;DHT22;63058;49.424;8.420;2023-04-25T01:15:30;13.00;93.30
20856;DHT22;63058;49.424;8.420;2023-04-25T01:17:57;13.00;93.30
20856;DHT22;63058;49.424;8.420;2023-04-25T01:20:23;13.00;93.30
20856;DHT22;63058;49.424;8.420;2023-04-25T01:22:51;13.10;93.30
20856;DHT22;63058;49.424;8.420;2023-04-25T01:25:18;13.00;93.30
20856;DHT22;63058;49.424;8.420;2023-04-25T01:27:44;13.00;93.30
20856;DHT22;63058;49.424;8.420;2023-04-25T01:30:10;13.00;93.30
20856;DHT22;63058;49.424;8.420;2023-04-25T01:32:36;12.90;93.30
20856;DHT22;63058;49.424;8.420;2023-04-25T01:35:06;13.00;93.40
20856;DHT22;63058;49.424;8.420;2023-04-25T01:37:39;12.90;93.40
20856;DHT22;63058;49.424;8.420;2023-04-25T01:40:06;12.90;93.40
20856;DHT22;63058;49.424;8.420;2023-04-25T01:42:33;12.90;93.60
20856;DHT22;63058;49.424;8.420;2023-04-25T01:44:59;12.90;93.80
20856;DHT22;63058;49.424;8.420;2023-04-25T01:47:25;12.90;93.90
20856;DHT22;63058;49.424;8.420;2023-04-25T01:49:51;13.10;94.00
20856;DHT22;63058;49.424;8.420;2023-04-25T01:52:16;12.90;93.90
20856;DHT22;63058;49.424;8.420;2023-04-25T01:54:42;13.00;93.80
20856;DHT22;63058;49.424;8.420;2023-04-25T01:57:11;12.70;93.70
20856;DHT22;63058;49.424;8.420;2023-04-25T01:59:36;12.60;93.70
20856;DHT22;63058;49.424;8.420;2023-04-25T02:02:02;12.50;93.80
20856;DHT22;63058;49.424;8.420;2023-04-25T02:04:31;12.40;93.90
20856;DHT22;63058;49.424;8.420;2023-04-25T02:06:57;12.30;94.00
20856;DHT22;63058;49.424;8.420;2023-04-25T02:09:23;12.10;94.20
20856;DHT22;63058;49.424;8.420;2023-04-25T02:11:49;12.10;94.40
20856;DHT22;63058;49.424;8.420;2023-04-25T02:14:15;12.00;94.50
20856;DHT22;63058;49.424;8.420;2023-04-25T02:16:40;11.90;94.60
20856;DHT22;63058;49.424;8.420;2023-04-25T02:19:06;11.90;94.70
20856;DHT22;63058;49.424;8.420;2023-04-25T02:21:32;11.80;94.90
20856;DHT22;63058;49.424;8.420;2023-04-25T02:23:58;11.80;95.00
20856;DHT22;63058;49.424;8.420;2023-04-25T02:26:24;11.70;95.00
20856;DHT22;63058;49.424;8.420;2023-04-25T02:28:50;11.70;95.10
20856;DHT22;63058;49.424;8.420;2023-04-25T02:31:16;11.60;95.10
20856;DHT22;63058;49.424;8.420;2023-04-25T02:33:42;11.60;95.20
20856;DHT22;63058;49.424;8.420;2023-04-25T02:36:08;11.50;95.30
20856;DHT22;63058;49.424;8.420;2023-04-25T02:38:34;11.40;95.30
20856;DHT22;63058;49.424;8.420;2023-04-25T02:41:00;11.40;95.50
20856;DHT22;63058;49.424;8.420;2023-04-25T02:43:25;11.40;95.70
20856;DHT22;63058;49.424;8.420;2023-04-25T02:45:51;11.40;95.90
20856;DHT22;63058;49.424;8.420;2023-04-25T02:48:17;11.30;96.00
20856;DHT22;63058;49.424;8.420;2023-04-25T02:50:42;11.50;96.20
20856;DHT22;63058;49.424;8.420;2023-04-25T02:53:08;11.50;96.20
20856;DHT22;63058;49.424;8.420;2023-04-25T02:55:34;11.40;96.30
20856;DHT22;63058;49.424;8.420;2023-04-25T02:58:00;11.40;96.40
20856;DHT22;63058;49.424;8.420;2023-04-25T03:00:25;11.40;96.50
20856;DHT22;63058;49.424;8.420;2023-04-25T03:02:51;11.40;96.50
20856;DHT22;63058;49.424;8.420;2023-04-25T03:05:17;11.50;96.50
20856;DHT22;63058;49.424;8.420;2023-04-25T03:07:43;11.40;96.40
20856;DHT22;63058;49.424;8.420;2023-04-25T03:10:10;11.40;96.30
20856;DHT22;63058;49.424;8.420;2023-04-25T03:12:36;11.30;96.30
20856;DHT22;63058;49.424;8.420;2023-04-25T03:15:02;11.40;96.40
20856;DHT22;63058;49.424;8.420;2023-04-25T03:17:27;11.30;96.40
20856;DHT22;63058;49.424;8.420;2023-04-25T03:19:53;11.20;96.50
20856;DHT22;63058;49.424;8.420;2023-04-25T03:22:19;11.20;96.60
20856;DHT22;63058;49.424;8.420;2023-04-25T03:24:45;11.20;96.60
20856;DHT22;63058;49.424;8.420;2023-04-25T03:27:10;11.30;96.80
20856;DHT22;63058;49.424;8.420;2023-04-25T03:29:36;11.10;96.80
20856;DHT22;63058;49.424;8.420;2023-04-25T03:32:01;11.10;96.90
20856;DHT22;63058;49.424;8.420;2023-04-25T03:34:27;11.10;96.90
20856;DHT22;63058;49.424;8.420;2023-04-25T03:36:53;11.10;97.40
20856;DHT22;63058;49.424;8.420;2023-04-25T03:39:19;11.30;97.30
20856;DHT22;63058;49.424;8.420;2023-04-25T03:41:44;11.20;97.40
20856;DHT22;63058;49.424;8.420;2023-04-25T03:44:10;11.20;97.40
20856;DHT22;63058;49.424;8.420;2023-04-25T03:46:35;11.20;97.40
20856;DHT22;63058;49.424;8.420;2023-04-25T03:49:01;11.30;97.40
20856;DHT22;63058;49.424;8.420;2023-04-25T03:51:27;11.30;97.30
20856;DHT22;63058;49.424;8.420;2023-04-25T03:53:52;11.30;97.30
20856;DHT22;63058;49.424;8.420;2023-04-25T03:56:18;11.30;97.30
20856;DHT22;63058;49.424;8.420;2023-04-25T03:58:44;11.30;97.40
20856;DHT22;63058;49.424;8.420;2023-04-25T04:01:10;11.40;97.50
20856;DHT22;63058;49.424;8.420;2023-04-25T04:03:36;11.40;97.50
20856;DHT22;63058;49.424;8.420;2023-04-25T04:06:04;11.50;97.50
20856;DHT22;63058;49.424;8.420;2023-04-25T04:08:31;11.40;97.60
20856;DHT22;63058;49.424;8.420;2023-04-25T04:10:57;11.50;97.70
20856;DHT22;63058;49.424;8.420;2023-04-25T04:13:26;11.40;97.80
20856;DHT22;63058;49.424;8.420;2023-04-25T04:15:51;11.50;97.80
20856;DHT22;63058;49.424;8.420;2023-04-25T04:18:17;11.60;97.90
20856;DHT22;63058;49.424;8.420;2023-04-25T04:20:43;11.60;97.90
20856;DHT22;63058;49.424;8.420;2023-04-25T04:23:09;11.60;97.80
20856;DHT22;63058;49.424;8.420;2023-04-25T04:25:34;11.60;97.70
20856;DHT22;63058;49.424;8.420;2023-04-25T04:28:00;11.60;97.60
20856;DHT22;63058;49.424;8.420;2023-04-25T04:30:27;11.70;97.90
20856;DHT22;63058;49.424;8.420;2023-04-25T04:32:56;11.60;97.50
20856;DHT22;63058;49.424;8.420;2023-04-25T04:35:23;11.60;97.60
20856;DHT22;63058;49.424;8.420;2023-04-25T04:37:48;11.70;97.60
20856;DHT22;63058;49.424;8.420;2023-04-25T04:40:15;11.60;97.70
20856;DHT22;63058;49.424;8.420;2023-04-25T04:42:42;11.60;97.80
20856;DHT22;63058;49.424;8.420;2023-04-25T04:45:08;11.60;97.90
20856;DHT22;63058;49.424;8.420;2023-04-25T04:47:34;11.60;98.00
20856;DHT22;63058;49.424;8.420;2023-04-25T04:50:02;11.60;98.00
20856;DHT22;63058;49.424;8.420;2023-04-25T04:52:29;11.70;98.10
20856;DHT22;63058;49.424;8.420;2023-04-25T04:54:55;11.90;98.10
20856;DHT22;63058;49.424;8.420;2023-04-25T04:57:21;11.80;98.10
20856;DHT22;63058;49.424;8.420;2023-04-25T04:59:47;11.80;97.90
20856;DHT22;63058;49.424;8.420;2023-04-25T05:02:13;11.80;98.00
20856;DHT22;63058;49.424;8.420;2023-04-25T05:04:38;11.90;98.00
20856;DHT22;63058;49.424;8.420;2023-04-25T05:07:04;12.00;97.90
20856;DHT22;63058;49.424;8.420;2023-04-25T05:09:30;12.00;97.90
20856;DHT22;63058;49.424;8.420;2023-04-25T05:11:56;11.90;97.90
20856;DHT22;63058;49.424;8.420;2023-04-25T05:14:21;12.00;98.00
20856;DHT22;63058;49.424;8.420;2023-04-25T05:16:48;12.00;98.00
20856;DHT22;63058;49.424;8.420;2023-04-25T05:19:14;12.00;98.00
20856;DHT22;63058;49.424;8.420;2023-04-25T05:21:40;12.00;98.10
20856;DHT22;63058;49.424;8.420;2023-04-25T05:24:05;12.10;98.40
20856;DHT22;63058;49.424;8.420;2023-04-25T05:26:31;12.10;98.20
20856;DHT22;63058;49.424;8.420;2023-04-25T05:28:57;12.20;98.30
20856;DHT22;63058;49.424;8.420;2023-04-25T05:31:23;12.30;98.30
20856;DHT22;63058;49.424;8.420;2023-04-25T05:33:49;12.30;98.40
20856;DHT22;63058;49.424;8.420;2023-04-25T05:36:14;12.30;98.40
20856;DHT22;63058;49.424;8.420;2023-04-25T05:38:40;12.40;98.40
20856;DHT22;63058;49.424;8.420;2023-04-25T05:43:41;12.40;98.20
20856;DHT22;63058;49.424;8.420;2023-04-25T05:46:12;12.50;98.50
20856;DHT22;63058;49.424;8.420;2023-04-25T05:48:38;12.50;98.40
20856;DHT22;63058;49.424;8.420;2023-04-25T05:51:04;12.50;98.40
20856;DHT22;63058;49.424;8.420;2023-04-25T05:53:30;12.60;98.40
20856;DHT22;63058;49.424;8.420;2023-04-25T05:55:55;12.60;98.40
20856;DHT22;63058;49.424;8.420;2023-04-25T05:58:21;12.60;98.40
20856;DHT22;63058;49.424;8.420;2023-04-25T06:00:47;12.60;98.40
20856;DHT22;63058;49.424;8.420;2023-04-25T06:03:13;12.70;98.40
20856;DHT22;63058;49.424;8.420;2023-04-25T06:05:41;12.60;98.40
20856;DHT22;63058;49.424;8.420;2023-04-25T06:08:07;12.60;98.40
20856;DHT22;63058;49.424;8.420;2023-04-25T06:10:33;12.70;98.50
20856;DHT22;63058;49.424;8.420;2023-04-25T06:12:58;12.80;98.50
20856;DHT22;63058;49.424;8.420;2023-04-25T06:15:24;12.90;98.50
20856;DHT22;63058;49.424;8.420;2023-04-25T06:17:50;12.80;98.40
20856;DHT22;63058;49.424;8.420;2023-04-25T06:20:15;12.80;98.40
20856;DHT22;63058;49.424;8.420;2023-04-25T06:22:41;12.80;98.50
20856;DHT22;63058;49.424;8.420;2023-04-25T06:25:07;12.80;98.60
20856;DHT22;63058;49.424;8.420;2023-04-25T06:27:33;12.90;98.90
20856;DHT22;63058;49.424;8.420;2023-04-25T06:29:59;12.90;98.50
20856;DHT22;63058;49.424;8.420;2023-04-25T06:32:25;12.90;98.60
20856;DHT22;63058;49.424;8.420;2023-04-25T06:34:52;12.90;98.60
20856;DHT22;63058;49.424;8.420;2023-04-25T06:37:18;13.00;98.60
20856;DHT22;63058;49.424;8.420;2023-04-25T06:39:44;13.00;98.60
20856;DHT22;63058;49.424;8.420;2023-04-25T06:42:09;13.10;98.60
20856;DHT22;63058;49.424;8.420;2023-04-25T06:44:35;13.10;98.70
20856;DHT22;63058;49.424;8.420;2023-04-25T06:47:01;13.10;98.80
20856;DHT22;63058;49.424;8.420;2023-04-25T06:49:26;13.10;98.80
20856;DHT22;63058;49.424;8.420;2023-04-25T06:51:52;13.20;98.80
20856;DHT22;63058;49.424;8.420;2023-04-25T06:54:17;13.20;98.50
20856;DHT22;63058;49.424;8.420;2023-04-25T06:56:43;13.20;98.40
20856;DHT22;63058;49.424;8.420;2023-04-25T06:59:09;13.20;98.30
20856;DHT22;63058;49.424;8.420;2023-04-25T07:01:34;13.20;98.40
20856;DHT22;63058;49.424;8.420;2023-04-25T07:04:00;13.40;98.40
20856;DHT22;63058;49.424;8.420;2023-04-25T07:06:26;13.20;97.90
20856;DHT22;63058;49.424;8.420;2023-04-25T07:08:53;13.20;97.50
20856;DHT22;63058;49.424;8.420;2023-04-25T07:11:18;13.20;97.40
20856;DHT22;63058;49.424;8.420;2023-04-25T07:13:44;13.20;97.40
20856;DHT22;63058;49.424;8.420;2023-04-25T07:16:10;13.20;97.40
20856;DHT22;63058;49.424;8.420;2023-04-25T07:18:36;13.10;97.30
20856;DHT22;63058;49.424;8.420;2023-04-25T07:21:01;13.10;97.50
20856;DHT22;63058;49.424;8.420;2023-04-25T07:23:27;13.20;97.70
20856;DHT22;63058;49.424;8.420;2023-04-25T07:25:52;13.20;97.80
20856;DHT22;63058;49.424;8.420;2023-04-25T07:28:18;13.40;97.70
20856;DHT22;63058;49.424;8.420;2023-04-25T07:30:44;13.40;97.60
20856;DHT22;63058;49.424;8.420;2023-04-25T07:33:10;13.50;97.60
20856;DHT22;63058;49.424;8.420;2023-04-25T07:35:35;13.40;97.40
20856;DHT22;63058;49.424;8.420;2023-04-25T07:38:02;13.50;97.30
20856;DHT22;63058;49.424;8.420;2023-04-25T07:40:28;13.40;97.10
20856;DHT22;63058;49.424;8.420;2023-04-25T07:42:54;13.40;97.00
20856;DHT22;63058;49.424;8.420;2023-04-25T07:45:19;13.40;96.90
20856;DHT22;63058;49.424;8.420;2023-04-25T07:47:45;13.40;97.00
20856;DHT22;63058;49.424;8.420;2023-04-25T07:50:11;13.40;97.00
20856;DHT22;63058;49.424;8.420;2023-04-25T07:52:36;13.40;97.20
20856;DHT22;63058;49.424;8.420;2023-04-25T07:55:02;13.50;97.30
20856;DHT22;63058;49.424;8.420;2023-04-25T07:57:29;13.40;97.30
20856;DHT22;63058;49.424;8.420;2023-04-25T07:59:54;13.50;97.40
20856;DHT22;63058;49.424;8.420;2023-04-25T08:02:20;13.50;97.60
20856;DHT22;63058;49.424;8.420;2023-04-25T08:04:45;13.50;97.70
20856;DHT22;63058;49.424;8.420;2023-04-25T08:07:11;13.50;97.90
20856;DHT22;63058;49.424;8.420;2023-04-25T08:09:37;13.60;97.90
20856;DHT22;63058;49.424;8.420;2023-04-25T08:12:03;13.70;97.60
20856;DHT22;63058;49.424;8.420;2023-04-25T08:14:30;13.80;97.50
20856;DHT22;63058;49.424;8.420;2023-04-25T08:17:01;13.90;97.60
20856;DHT22;63058;49.424;8.420;2023-04-25T08:19:27;13.80;97.10
20856;DHT22;63058;49.424;8.420;2023-04-25T08:21:52;13.80;97.10
20856;DHT22;63058;49.424;8.420;2023-04-25T08:24:18;13.90;95.60
20856;DHT22;63058;49.424;8.420;2023-04-25T08:26:43;13.90;96.30
20856;DHT22;63058;49.424;8.420;2023-04-25T08:29:09;13.80;96.50
20856;DHT22;63058;49.424;8.420;2023-04-25T08:31:36;13.80;96.70
20856;DHT22;63058;49.424;8.420;2023-04-25T08:34:02;13.80;96.90
20856;DHT22;63058;49.424;8.420;2023-04-25T08:36:27;13.90;97.00
20856;DHT22;63058;49.424;8.420;2023-04-25T08:38:53;14.00;97.10
20856;DHT22;63058;49.424;8.420;2023-04-25T08:41:20;14.10;97.10
20856;DHT22;63058;49.424;8.420;2023-04-25T08:43:48;14.10;96.60
20856;DHT22;63058;49.424;8.420;2023-04-25T08:46:17;14.20;97.00
20856;DHT22;63058;49.424;8.420;2023-04-25T08:48:45;14.30;97.50
20856;DHT22;63058;49.424;8.420;2023-04-25T08:51:17;14.40;96.50
20856;DHT22;63058;49.424;8.420;2023-04-25T08:53:47;14.70;96.50
20856;DHT22;63058;49.424;8.420;2023-04-25T08:56:16;14.70;96.10
20856;DHT22;63058;49.424;8.420;2023-04-25T08:58:50;14.70;94.20
20856;DHT22;63058;49.424;8.420;2023-04-25T09:01:17;14.70;94.30
20856;DHT22;63058;49.424;8.420;2023-04-25T09:03:44;14.70;94.80
20856;DHT22;63058;49.424;8.420;2023-04-25T09:06:11;14.60;94.70
20856;DHT22;63058;49.424;8.420;2023-04-25T09:08:37;14.60;94.80
20856;DHT22;63058;49.424;8.420;2023-04-25T09:11:06;14.60;95.10
20856;DHT22;63058;49.424;8.420;2023-04-25T09:13:31;14.60;95.00
20856;DHT22;63058;49.424;8.420;2023-04-25T09:15:58;14.60;95.40
20856;DHT22;63058;49.424;8.420;2023-04-25T09:18:28;14.60;95.80
20856;DHT22;63058;49.424;8.420;2023-04-25T09:20:55;14.80;96.20
20856;DHT22;63058;49.424;8.420;2023-04-25T09:23:22;14.90;96.40
20856;DHT22;63058;49.424;8.420;2023-04-25T09:25:49;15.10;96.90
20856;DHT22;63058;49.424;8.420;2023-04-25T09:28:15;15.30;96.70
20856;DHT22;63058;49.424;8.420;2023-04-25T09:30:40;15.50;97.00
20856;DHT22;63058;49.424;8.420;2023-04-25T09:33:06;15.80;96.30
20856;DHT22;63058;49.424;8.420;2023-04-25T09:35:37;15.90;94.80
20856;DHT22;63058;49.424;8.420;2023-04-25T09:38:11;16.10;93.90
20856;DHT22;63058;49.424;8.420;2023-04-25T09:40:45;16.10;93.90
20856;DHT22;63058;49.424;8.420;2023-04-25T09:43:22;16.10;93.70
20856;DHT22;63058;49.424;8.420;2023-04-25T09:45:48;16.10;93.00
20856;DHT22;63058;49.424;8.420;2023-04-25T09:48:19;16.10;93.80
20856;DHT22;63058;49.424;8.420;2023-04-25T09:50:52;16.10;92.90
20856;DHT22;63058;49.424;8.420;2023-04-25T09:53:29;16.10;92.80
20856;DHT22;63058;49.424;8.420;2023-04-25T09:55:55;16.00;93.10
20856;DHT22;63058;49.424;8.420;2023-04-25T09:58:24;16.00;92.50
20856;DHT22;63058;49.424;8.420;2023-04-25T10:00:51;16.00;91.40
20856;DHT22;63058;49.424;8.420;2023-04-25T10:03:18;16.00;92.20
20856;DHT22;63058;49.424;8.420;2023-04-25T10:05:46;15.90;92.40
20856;DHT22;63058;49.424;8.420;2023-04-25T10:08:14;16.00;92.50
20856;DHT22;63058;49.424;8.420;2023-04-25T10:10:42;16.00;91.60
20856;DHT22;63058;49.424;8.420;2023-04-25T10:13:08;16.00;91.00
20856;DHT22;63058;49.424;8.420;2023-04-25T10:15:35;16.00;92.00
20856;DHT22;63058;49.424;8.420;2023-04-25T10:18:02;16.10;90.60
20856;DHT22;63058;49.424;8.420;2023-04-25T10:20:28;16.10;90.70
20856;DHT22;63058;49.424;8.420;2023-04-25T10:22:55;16.20;91.60
20856;DHT22;63058;49.424;8.420;2023-04-25T10:25:23;16.20;92.30
20856;DHT22;63058;49.424;8.420;2023-04-25T10:27:53;16.30;91.80
20856;DHT22;63058;49.424;8.420;2023-04-25T10:30:19;16.40;91.60
20856;DHT22;63058;49.424;8.420;2023-04-25T10:32:45;16.50;93.00
20856;DHT22;63058;49.424;8.420;2023-04-25T10:38:00;16.80;91.90
20856;DHT22;63058;49.424;8.420;2023-04-25T10:40:28;16.80;91.10
20856;DHT22;63058;49.424;8.420;2023-04-25T10:42:55;16.70;92.10
20856;DHT22;63058;49.424;8.420;2023-04-25T10:45:21;16.60;91.60
20856;DHT22;63058;49.424;8.420;2023-04-25T10:47:47;16.50;91.40
20856;DHT22;63058;49.424;8.420;2023-04-25T10:50:17;16.40;91.20
20856;DHT22;63058;49.424;8.420;2023-04-25T10:52:42;16.20;90.60
20856;DHT22;63058;49.424;8.420;2023-04-25T10:55:09;16.10;90.80
20856;DHT22;63058;49.424;8.420;2023-04-25T10:57:43;16.00;90.90
20856;DHT22;63058;49.424;8.420;2023-04-25T11:00:19;15.90;90.60
20856;DHT22;63058;49.424;8.420;2023-04-25T11:02:57;15.80;90.50
20856;DHT22;63058;49.424;8.420;2023-04-25T11:05:33;15.90;91.70
20856;DHT22;63058;49.424;8.420;2023-04-25T11:08:00;15.90;91.70
20856;DHT22;63058;49.424;8.420;2023-04-25T11:10:33;16.00;92.50
20856;DHT22;63058;49.424;8.420;2023-04-25T11:13:00;16.20;93.00
20856;DHT22;63058;49.424;8.420;2023-04-25T11:15:26;16.50;92.90
20856;DHT22;63058;49.424;8.420;2023-04-25T11:17:53;16.80;92.20
20856;DHT22;63058;49.424;8.420;2023-04-25T11:20:20;16.80;91.60
20856;DHT22;63058;49.424;8.420;2023-04-25T11:22:47;16.90;91.10
20856;DHT22;63058;49.424;8.420;2023-04-25T11:25:14;17.00;91.00
20856;DHT22;63058;49.424;8.420;2023-04-25T11:30:16;17.10;90.50
20856;DHT22;63058;49.424;8.420;2023-04-25T11:32:42;17.10;90.40
20856;DHT22;63058;49.424;8.420;2023-04-25T11:35:09;17.10;90.20
20856;DHT22;63058;49.424;8.420;2023-04-25T11:37:35;17.20;88.90
20856;DHT22;63058;49.424;8.420;2023-04-25T11:40:00;17.20;89.40
20856;DHT22;63058;49.424;8.420;2023-04-25T11:42:27;17.10;87.10
20856;DHT22;63058;49.424;8.420;2023-04-25T11:44:53;17.10;87.60
20856;DHT22;63058;49.424;8.420;2023-04-25T11:47:18;17.00;86.90
20856;DHT22;63058;49.424;8.420;2023-04-25T11:49:44;17.00;87.30
20856;DHT22;63058;49.424;8.420;2023-04-25T11:52:09;17.00;87.00
20856;DHT22;63058;49.424;8.420;2023-04-25T11:54:36;17.00;87.70
20856;DHT22;63058;49.424;8.420;2023-04-25T11:57:02;16.90;88.20
20856;DHT22;63058;49.424;8.420;2023-04-25T11:59:28;16.90;88.80
20856;DHT22;63058;49.424;8.420;2023-04-25T12:01:54;16.90;88.80
20856;DHT22;63058;49.424;8.420;2023-04-25T12:04:22;16.90;87.50
20856;DHT22;63058;49.424;8.420;2023-04-25T12:06:51;16.90;86.50
20856;DHT22;63058;49.424;8.420;2023-04-25T12:09:37;16.80;86.90
20856;DHT22;63058;49.424;8.420;2023-04-25T12:12:03;16.80;84.20
20856;DHT22;63058;49.424;8.420;2023-04-25T12:14:32;16.70;83.70
20856;DHT22;63058;49.424;8.420;2023-04-25T12:17:00;16.70;84.50
20856;DHT22;63058;49.424;8.420;2023-04-25T12:19:29;16.70;85.20
20856;DHT22;63058;49.424;8.420;2023-04-25T12:21:56;16.80;84.60
20856;DHT22;63058;49.424;8.420;2023-04-25T12:24:23;16.80;85.10
20856;DHT22;63058;49.424;8.420;2023-04-25T12:29:21;16.90;85.10
20856;DHT22;63058;49.424;8.420;2023-04-25T12:31:48;17.00;83.00
20856;DHT22;63058;49.424;8.420;2023-04-25T12:34:14;17.20;86.20
20856;DHT22;63058;49.424;8.420;2023-04-25T12:36:40;17.20;87.10
20856;DHT22;63058;49.424;8.420;2023-04-25T12:39:06;17.30;86.00
20856;DHT22;63058;49.424;8.420;2023-04-25T12:41:32;17.50;86.10
20856;DHT22;63058;49.424;8.420;2023-04-25T12:43:58;17.70;85.00
20856;DHT22;63058;49.424;8.420;2023-04-25T12:46:24;17.80;84.80
20856;DHT22;63058;49.424;8.420;2023-04-25T12:48:50;17.90;85.10
20856;DHT22;63058;49.424;8.420;2023-04-25T12:51:15;18.00;84.40
20856;DHT22;63058;49.424;8.420;2023-04-25T12:53:41;18.10;84.60
20856;DHT22;63058;49.424;8.420;2023-04-25T12:56:08;18.10;84.70
20856;DHT22;63058;49.424;8.420;2023-04-25T12:58:34;18.10;86.00
20856;DHT22;63058;49.424;8.420;2023-04-25T13:00:59;18.10;83.20
20856;DHT22;63058;49.424;8.420;2023-04-25T13:03:25;18.00;83.40
20856;DHT22;63058;49.424;8.420;2023-04-25T13:05:51;18.00;83.00
20856;DHT22;63058;49.424;8.420;2023-04-25T13:08:21;17.90;82.40
20856;DHT22;63058;49.424;8.420;2023-04-25T13:10:47;17.90;82.10
20856;DHT22;63058;49.424;8.420;2023-04-25T13:13:13;17.90;82.70
20856;DHT22;63058;49.424;8.420;2023-04-25T13:15:39;17.80;83.70
20856;DHT22;63058;49.424;8.420;2023-04-25T13:18:05;17.90;83.80
20856;DHT22;63058;49.424;8.420;2023-04-25T13:20:33;18.00;84.50
20856;DHT22;63058;49.424;8.420;2023-04-25T13:22:59;18.10;85.30
20856;DHT22;63058;49.424;8.420;2023-04-25T13:25:25;18.30;85.50
20856;DHT22;63058;49.424;8.420;2023-04-25T13:27:51;18.30;82.30
20856;DHT22;63058;49.424;8.420;2023-04-25T13:30:16;18.30;81.30
20856;DHT22;63058;49.424;8.420;2023-04-25T13:32:42;18.20;79.20
20856;DHT22;63058;49.424;8.420;2023-04-25T13:35:10;18.10;79.20
20856;DHT22;63058;49.424;8.420;2023-04-25T13:37:37;18.00;79.70
20856;DHT22;63058;49.424;8.420;2023-04-25T13:40:05;17.80;80.00
20856;DHT22;63058;49.424;8.420;2023-04-25T13:42:32;17.60;80.80
20856;DHT22;63058;49.424;8.420;2023-04-25T13:44:57;17.50;79.20
20856;DHT22;63058;49.424;8.420;2023-04-25T13:47:23;17.40;79.10
20856;DHT22;63058;49.424;8.420;2023-04-25T13:49:49;17.30;77.70
20856;DHT22;63058;49.424;8.420;2023-04-25T13:52:15;17.20;77.60
20856;DHT22;63058;49.424;8.420;2023-04-25T13:54:41;17.10;78.60
20856;DHT22;63058;49.424;8.420;2023-04-25T13:57:07;16.90;79.90
20856;DHT22;63058;49.424;8.420;2023-04-25T13:59:32;16.90;80.60
20856;DHT22;63058;49.424;8.420;2023-04-25T14:01:58;16.80;80.20
20856;DHT22;63058;49.424;8.420;2023-04-25T14:04:24;16.80;79.90
20856;DHT22;63058;49.424;8.420;2023-04-25T14:06:50;16.70;81.00
20856;DHT22;63058;49.424;8.420;2023-04-25T14:09:17;16.70;81.90
20856;DHT22;63058;49.424;8.420;2023-04-25T14:11:43;16.70;82.40
20856;DHT22;63058;49.424;8.420;2023-04-25T14:14:08;16.80;80.80
20856;DHT22;63058;49.424;8.420;2023-04-25T14:16:34;16.80;80.70
20856;DHT22;63058;49.424;8.420;2023-04-25T14:19:00;16.70;80.50
20856;DHT22;63058;49.424;8.420;2023-04-25T14:21:27;16.70;79.10
20856;DHT22;63058;49.424;8.420;2023-04-25T14:23:53;16.60;79.40
20856;DHT22;63058;49.424;8.420;2023-04-25T14:26:19;16.60;79.40
20856;DHT22;63058;49.424;8.420;2023-04-25T14:28:45;16.50;80.20
20856;DHT22;63058;49.424;8.420;2023-04-25T14:31:12;16.50;80.40
20856;DHT22;63058;49.424;8.420;2023-04-25T14:33:37;16.40;80.80
20856;DHT22;63058;49.424;8.420;2023-04-25T14:36:07;16.40;81.10
20856;DHT22;63058;49.424;8.420;2023-04-25T14:38:33;16.30;81.00
20856;DHT22;63058;49.424;8.420;2023-04-25T14:40:58;16.30;80.80
20856;DHT22;63058;49.424;8.420;2023-04-25T14:43:24;16.20;79.20
20856;DHT22;63058;49.424;8.420;2023-04-25T14:45:49;16.10;79.20
20856;DHT22;63058;49.424;8.420;2023-04-25T14:48:16;16.00;79.90
20856;DHT22;63058;49.424;8.420;2023-04-25T14:50:43;15.90;80.20
20856;DHT22;63058;49.424;8.420;2023-04-25T14:53:09;15.80;80.80
20856;DHT22;63058;49.424;8.420;2023-04-25T14:55:34;15.80;81.10
20856;DHT22;63058;49.424;8.420;2023-04-25T14:58:00;15.80;82.00
20856;DHT22;63058;49.424;8.420;2023-04-25T15:00:26;15.80;82.10
20856;DHT22;63058;49.424;8.420;2023-04-25T15:02:52;15.80;80.80
20856;DHT22;63058;49.424;8.420;2023-04-25T15:05:18;15.90;80.70
20856;DHT22;63058;49.424;8.420;2023-04-25T15:07:44;15.90;78.20
20856;DHT22;63058;49.424;8.420;2023-04-25T15:10:10;16.00;79.40
20856;DHT22;63058;49.424;8.420;2023-04-25T15:12:44;16.20;81.30
20856;DHT22;63058;49.424;8.420;2023-04-25T15:15:12;16.30;82.40
20856;DHT22;63058;49.424;8.420;2023-04-25T15:17:40;16.60;78.80
20856;DHT22;63058;49.424;8.420;2023-04-25T15:20:07;16.80;80.00
20856;DHT22;63058;49.424;8.420;2023-04-25T15:22:36;17.00;81.60
20856;DHT22;63058;49.424;8.420;2023-04-25T15:25:02;17.20;81.10
20856;DHT22;63058;49.424;8.420;2023-04-25T15:27:28;17.40;80.70
20856;DHT22;63058;49.424;8.420;2023-04-25T15:29:54;17.60;81.50
20856;DHT22;63058;49.424;8.420;2023-04-25T15:32:19;17.80;81.00
20856;DHT22;63058;49.424;8.420;2023-04-25T15:34:46;17.80;80.10